createdAt,value
2023-05-11T00:01:08.621Z,3.43
2023-05-11T00:03:35.472Z,4.03
2023-05-11T00:06:02.424Z,3.90
2023-05-11T00:08:28.959Z,3.53
2023-05-11T00:10:55.051Z,3.77
2023-05-11T00:13:21.416Z,4.10
2023-05-11T00:15:47.570Z,3.70
2023-05-11T00:18:14.016Z,3.60
2023-05-11T00:20:40.050Z,4.00
2023-05-11T00:23:06.416Z,3.97
2023-05-11T00:25:32.577Z,3.90
2023-05-11T00:27:58.986Z,4.53
2023-05-11T00:30:25.096Z,3.97
2023-05-11T00:32:51.559Z,4.40
2023-05-11T00:35:17.798Z,4.00
2023-05-11T00:37:44.313Z,4.00
2023-05-11T00:40:10.635Z,4.07
2023-05-11T00:42:37.080Z,4.03
2023-05-11T00:45:03.657Z,4.57
2023-05-11T00:47:30.261Z,3.70
2023-05-11T00:49:56.896Z,3.70
2023-05-11T00:52:24.191Z,3.90
2023-05-11T00:54:50.810Z,4.33
2023-05-11T00:57:17.325Z,4.33
2023-05-11T00:59:43.391Z,4.10
2023-05-11T01:02:10.211Z,4.20
2023-05-11T01:04:36.930Z,4.30
2023-05-11T01:07:12.740Z,4.37
2023-05-11T01:10:10.435Z,4.13
2023-05-11T01:13:07.435Z,4.07
2023-05-11T01:15:55.916Z,4.27
2023-05-11T01:18:34.224Z,4.80
2023-05-11T01:21:08.729Z,4.20
2023-05-11T01:23:38.621Z,4.30
2023-05-11T01:26:13.841Z,4.43
2023-05-11T01:28:52.108Z,4.47
2023-05-11T01:31:19.646Z,4.03
2023-05-11T01:33:53.317Z,4.20
2023-05-11T01:36:24.567Z,4.00
2023-05-11T01:38:53.215Z,4.23
2023-05-11T01:41:23.849Z,4.23
2023-05-11T01:43:55.091Z,4.47
2023-05-11T01:46:24.295Z,4.43
2023-05-11T01:48:53.976Z,3.83
2023-05-11T01:51:20.178Z,4.07
2023-05-11T01:53:47.721Z,3.80
2023-05-11T01:56:15.032Z,4.03
2023-05-11T01:58:43.010Z,3.87
2023-05-11T02:01:10.703Z,4.10
2023-05-11T02:03:38.827Z,4.50
2023-05-11T02:06:07.279Z,4.20
2023-05-11T02:08:37.495Z,4.50
2023-05-11T02:11:05.833Z,4.30
2023-05-11T02:13:35.693Z,3.70
2023-05-11T02:16:03.131Z,3.80
2023-05-11T02:18:31.161Z,4.63
2023-05-11T02:20:59.503Z,4.53
2023-05-11T02:23:27.112Z,4.47
2023-05-11T02:25:55.169Z,4.27
2023-05-11T02:28:21.670Z,3.77
2023-05-11T02:30:51.567Z,7.37
2023-05-11T02:33:23.930Z,5.13
2023-05-11T02:35:52.458Z,5.53
2023-05-11T02:38:20.238Z,4.40
2023-05-11T02:40:50.802Z,4.43
2023-05-11T02:43:23.877Z,4.40
2023-05-11T02:46:00.009Z,4.23
2023-05-11T02:48:29.804Z,4.63
2023-05-11T02:51:00.483Z,5.10
2023-05-11T02:53:34.272Z,4.97
2023-05-11T02:56:01.078Z,4.20
2023-05-11T02:58:30.009Z,4.70
2023-05-11T03:01:08.032Z,5.23
2023-05-11T03:03:34.842Z,4.67
2023-05-11T03:06:01.157Z,4.30
2023-05-11T03:08:28.317Z,4.40
2023-05-11T03:10:55.957Z,4.70
2023-05-11T03:13:24.408Z,5.00
2023-05-11T03:15:53.973Z,4.63
2023-05-11T03:18:22.060Z,4.53
2023-05-11T03:20:49.704Z,4.70
2023-05-11T03:23:17.919Z,4.47
2023-05-11T03:25:44.967Z,4.73
2023-05-11T03:28:14.017Z,4.60
2023-05-11T03:30:47.295Z,4.53
2023-05-11T03:33:13.767Z,4.20
2023-05-11T03:35:42.450Z,4.20
2023-05-11T03:38:11.477Z,3.90
2023-05-11T03:40:41.089Z,4.63
2023-05-11T03:43:10.234Z,4.20
2023-05-11T03:45:37.540Z,3.83
2023-05-11T03:48:07.610Z,4.17
2023-05-11T03:50:34.277Z,4.30
2023-05-11T03:53:00.777Z,4.37
2023-05-11T03:55:27.283Z,4.27
2023-05-11T03:57:54.076Z,4.37
2023-05-11T04:00:21.408Z,4.17
2023-05-11T04:02:48.225Z,3.90
2023-05-11T04:05:14.476Z,3.97
2023-05-11T04:07:44.266Z,4.60
2023-05-11T04:10:10.651Z,4.10
2023-05-11T04:12:36.986Z,4.00
2023-05-11T04:15:03.810Z,3.57
2023-05-11T04:17:30.197Z,4.33
2023-05-11T04:19:56.312Z,3.90
2023-05-11T04:22:22.911Z,4.47
2023-05-11T04:24:48.984Z,3.63
2023-05-11T04:27:15.786Z,3.90
2023-05-11T04:29:41.926Z,4.07
2023-05-11T04:32:08.301Z,4.03
2023-05-11T04:34:34.470Z,4.07
2023-05-11T04:37:06.482Z,4.50
2023-05-11T04:39:34.245Z,4.37
2023-05-11T04:42:01.244Z,4.17
2023-05-11T04:44:28.358Z,3.80
2023-05-11T04:46:56.007Z,5.40
2023-05-11T04:49:22.414Z,3.73
2023-05-11T04:51:48.866Z,3.83
2023-05-11T04:54:16.045Z,3.60
2023-05-11T04:56:42.665Z,3.90
2023-05-11T04:59:09.531Z,4.37
2023-05-11T05:01:36.169Z,4.47
2023-05-11T05:04:02.677Z,3.93
2023-05-11T05:06:29.065Z,4.13
2023-05-11T05:08:56.356Z,4.43
2023-05-11T05:11:23.501Z,4.43
2023-05-11T05:13:50.144Z,4.60
2023-05-11T05:16:17.079Z,4.03
2023-05-11T05:18:43.337Z,4.30
2023-05-11T05:21:09.991Z,3.80
2023-05-11T05:23:36.089Z,4.07
2023-05-11T05:26:02.571Z,4.53
2023-05-11T05:28:30.306Z,4.03
2023-05-11T05:30:57.471Z,4.00
2023-05-11T05:33:26.280Z,4.37
2023-05-11T05:35:53.250Z,4.30
2023-05-11T05:38:19.657Z,4.20
2023-05-11T05:40:46.482Z,4.13
2023-05-11T05:43:12.658Z,4.47
2023-05-11T05:45:39.339Z,4.60
2023-05-11T05:48:06.039Z,4.70
2023-05-11T05:50:33.334Z,4.50
2023-05-11T05:52:59.459Z,4.73
2023-05-11T05:55:27.885Z,4.50
2023-05-11T05:57:55.599Z,4.38
2023-05-11T06:00:22.361Z,4.50
2023-05-11T06:02:57.273Z,4.20
2023-05-11T06:05:26.417Z,4.00
2023-05-11T06:08:05.970Z,4.13
2023-05-11T06:10:37.684Z,4.38
2023-05-11T06:13:04.090Z,4.18
2023-05-11T06:15:30.690Z,4.53
2023-05-11T06:18:03.239Z,4.10
2023-05-11T06:20:31.336Z,3.90
2023-05-11T06:22:57.595Z,5.68
2023-05-11T06:25:24.131Z,4.50
2023-05-11T06:27:50.569Z,4.50
2023-05-11T06:30:17.871Z,4.70
2023-05-11T06:32:47.157Z,3.95
2023-05-11T06:35:16.410Z,4.22
2023-05-11T06:37:42.628Z,4.07
2023-05-11T06:40:09.640Z,4.45
2023-05-11T06:42:54.265Z,4.32
2023-05-11T06:45:20.983Z,4.38
2023-05-11T06:47:50.463Z,3.88
2023-05-11T06:50:18.386Z,5.07
2023-05-11T06:52:45.637Z,4.22
2023-05-11T06:55:13.585Z,4.63
2023-05-11T06:57:40.246Z,4.82
2023-05-11T07:00:07.526Z,4.88
2023-05-11T07:02:33.671Z,4.40
2023-05-11T07:05:00.360Z,4.30
2023-05-11T07:07:27.001Z,5.07
2023-05-11T07:09:53.421Z,4.35
2023-05-11T07:12:19.473Z,3.90
2023-05-11T07:14:45.818Z,4.88
2023-05-11T07:17:12.497Z,4.78
2023-05-11T07:19:39.258Z,3.92
2023-05-11T07:22:05.346Z,4.93
2023-05-11T07:24:31.741Z,4.85
2023-05-11T07:26:57.866Z,4.88
2023-05-11T07:29:24.246Z,4.60
2023-05-11T07:31:50.870Z,4.50
2023-05-11T07:34:17.392Z,4.25
2023-05-11T07:36:44.201Z,4.18
2023-05-11T07:39:10.632Z,4.00
2023-05-11T07:41:36.733Z,4.20
2023-05-11T07:44:03.186Z,4.50
2023-05-11T07:46:29.800Z,4.53
2023-05-11T07:49:11.277Z,4.38
2023-05-11T07:51:42.101Z,4.35
2023-05-11T07:54:08.894Z,4.15
2023-05-11T07:56:35.648Z,5.18
2023-05-11T07:59:02.361Z,4.20
2023-05-11T08:01:28.609Z,4.50
2023-05-11T08:03:55.454Z,4.43
2023-05-11T08:06:21.892Z,4.13
2023-05-11T08:08:48.497Z,4.97
2023-05-11T08:11:14.862Z,4.57
2023-05-11T08:13:41.655Z,4.25
2023-05-11T08:16:08.189Z,4.90
2023-05-11T08:18:34.748Z,4.28
2023-05-11T08:21:00.963Z,4.50
2023-05-11T08:23:27.297Z,4.30
2023-05-11T08:25:55.293Z,4.45
2023-05-11T08:28:22.445Z,3.88
2023-05-11T08:30:58.888Z,4.05
2023-05-11T08:33:37.597Z,4.38
2023-05-11T08:36:06.171Z,4.35
2023-05-11T08:38:34.797Z,4.25
2023-05-11T08:41:01.536Z,4.05
2023-05-11T08:43:28.608Z,4.45
2023-05-11T08:46:00.467Z,4.55
2023-05-11T08:48:28.362Z,4.85
2023-05-11T08:50:54.441Z,4.45
2023-05-11T08:53:21.943Z,4.30
2023-05-11T08:55:50.709Z,4.25
2023-05-11T08:58:21.707Z,4.78
2023-05-11T09:00:51.319Z,4.63
2023-05-11T09:03:21.721Z,4.63
2023-05-11T09:05:49.171Z,4.55
2023-05-11T09:08:18.707Z,4.40
2023-05-11T09:10:45.220Z,4.28
2023-05-11T09:13:11.937Z,4.43
2023-05-11T09:15:38.577Z,4.03
2023-05-11T09:18:05.018Z,4.13
2023-05-11T09:20:33.022Z,4.30
2023-05-11T09:23:00.284Z,4.85
2023-05-11T09:25:31.551Z,4.03
2023-05-11T09:27:58.913Z,4.78
2023-05-11T09:30:25.830Z,4.38
2023-05-11T09:32:57.435Z,3.88
2023-05-11T09:35:29.098Z,3.90
2023-05-11T09:38:11.764Z,3.75
2023-05-11T09:40:43.965Z,3.42
2023-05-11T09:43:28.121Z,3.55
2023-05-11T09:45:57.403Z,3.78
2023-05-11T09:48:26.355Z,3.60
2023-05-11T09:50:59.798Z,3.60
2023-05-11T09:53:43.947Z,3.38
2023-05-11T09:56:12.234Z,3.42
2023-05-11T09:58:49.503Z,6.70
2023-05-11T10:01:18.469Z,3.17
2023-05-11T10:03:56.275Z,3.30
2023-05-11T10:06:28.014Z,3.67
2023-05-11T10:08:54.475Z,3.40
2023-05-11T10:11:24.103Z,2.80
2023-05-11T10:13:52.291Z,3.05
2023-05-11T10:16:19.689Z,3.42
2023-05-11T10:18:46.150Z,3.38
2023-05-11T10:21:14.720Z,3.17
2023-05-11T10:23:42.216Z,3.60
2023-05-11T10:26:09.839Z,3.55
2023-05-11T10:28:36.501Z,5.05
2023-05-11T10:31:04.052Z,3.47
2023-05-11T10:33:30.689Z,4.05
2023-05-11T10:35:57.289Z,3.80
2023-05-11T10:38:24.722Z,3.40
2023-05-11T10:40:54.691Z,3.40
2023-05-11T10:44:02.951Z,3.30
2023-05-11T10:47:00.528Z,2.80
2023-05-11T10:49:38.037Z,3.45
2023-05-11T10:52:26.790Z,4.47
2023-05-11T10:55:30.604Z,5.00
2023-05-11T10:58:06.981Z,3.58
2023-05-11T11:01:00.657Z,3.00
2023-05-11T11:03:27.840Z,2.90
2023-05-11T11:05:54.014Z,3.17
2023-05-11T11:08:20.460Z,3.08
2023-05-11T11:10:48.563Z,3.25
2023-05-11T11:13:16.610Z,3.30
2023-05-11T11:15:54.899Z,2.80
2023-05-11T11:18:29.366Z,2.80
2023-05-11T11:20:57.825Z,3.00
2023-05-11T11:23:39.922Z,3.47
2023-05-11T11:26:10.985Z,3.20
2023-05-11T11:29:04.731Z,3.08
2023-05-11T11:31:32.847Z,2.90
2023-05-11T11:34:28.087Z,3.30
2023-05-11T11:36:54.169Z,2.63
2023-05-11T11:39:49.264Z,2.83
2023-05-11T11:42:18.051Z,2.75
2023-05-11T11:44:45.522Z,2.67
2023-05-11T11:47:16.612Z,2.28
2023-05-11T11:49:45.246Z,2.20
2023-05-11T11:52:12.821Z,2.40
2023-05-11T11:54:44.554Z,2.55
2023-05-11T11:57:28.982Z,2.45
2023-05-11T11:59:55.756Z,2.60
2023-05-11T12:02:22.640Z,2.88
2023-05-11T12:04:59.208Z,2.47
2023-05-11T12:07:26.414Z,2.17
2023-05-11T12:09:53.155Z,2.00
2023-05-11T12:12:20.294Z,2.13
2023-05-11T12:14:50.286Z,2.47
2023-05-11T12:17:28.677Z,2.30
2023-05-11T12:20:11.529Z,2.42
2023-05-11T12:22:37.858Z,2.83
2023-05-11T12:25:05.851Z,2.35
2023-05-11T12:27:31.969Z,2.78
2023-05-11T12:29:59.501Z,2.85
2023-05-11T12:32:29.803Z,2.75
2023-05-11T12:35:01.172Z,2.35
2023-05-11T12:37:29.243Z,2.45
2023-05-11T12:39:56.999Z,2.33
2023-05-11T12:42:23.506Z,2.88
2023-05-11T12:44:50.720Z,2.80
2023-05-11T12:47:17.060Z,2.65
2023-05-11T12:49:44.096Z,2.38
2023-05-11T12:52:12.869Z,2.53
2023-05-11T12:54:41.046Z,2.33
2023-05-11T12:57:20.952Z,2.10
2023-05-11T12:59:47.397Z,3.28
2023-05-11T13:02:17.522Z,2.25
2023-05-11T13:04:47.000Z,2.25
2023-05-11T13:07:22.539Z,2.10
2023-05-11T13:09:59.747Z,1.85
2023-05-11T13:12:27.657Z,2.05
2023-05-11T13:15:05.235Z,2.17
2023-05-11T13:17:33.367Z,2.35
2023-05-11T13:20:23.836Z,1.92
2023-05-11T13:22:50.425Z,1.83
2023-05-11T13:25:20.131Z,2.10
2023-05-11T13:27:46.707Z,2.13
2023-05-11T13:30:13.409Z,1.95
2023-05-11T13:32:39.729Z,2.28
2023-05-11T13:35:06.572Z,2.78
2023-05-11T13:37:32.680Z,2.38
2023-05-11T13:39:59.129Z,2.25
2023-05-11T13:42:25.222Z,2.10
2023-05-11T13:44:51.653Z,2.03
2023-05-11T13:47:17.834Z,2.10
2023-05-11T13:49:44.307Z,2.10
2023-05-11T13:52:10.562Z,2.22
2023-05-11T13:54:36.955Z,2.20
2023-05-11T13:57:04.013Z,2.20
2023-05-11T13:59:30.509Z,11.57
2023-05-11T14:01:56.741Z,2.22
2023-05-11T14:04:24.669Z,2.28
2023-05-11T14:06:50.785Z,2.08
2023-05-11T14:09:17.381Z,2.25
2023-05-11T14:11:43.609Z,2.53
2023-05-11T14:14:10.314Z,2.10
2023-05-11T14:16:36.408Z,2.20
2023-05-11T14:19:03.062Z,2.60
2023-05-11T14:21:29.230Z,2.50
2023-05-11T14:24:10.651Z,2.20
2023-05-11T14:26:41.644Z,2.20
2023-05-11T14:29:08.176Z,2.28
2023-05-11T14:31:35.565Z,2.03
2023-05-11T14:34:03.521Z,2.03
2023-05-11T14:36:31.040Z,2.17
2023-05-11T14:38:57.635Z,2.60
2023-05-11T14:41:24.951Z,2.20
2023-05-11T14:43:51.553Z,2.10
2023-05-11T14:46:17.860Z,2.40
2023-05-11T14:48:44.397Z,2.40
2023-05-11T14:51:10.677Z,2.10
2023-05-11T14:53:37.202Z,2.47
2023-05-11T14:56:03.686Z,2.15
2023-05-11T14:58:32.435Z,2.83
2023-05-11T15:00:59.645Z,3.17
2023-05-11T15:03:26.541Z,2.63
2023-05-11T15:05:52.858Z,2.65
2023-05-11T15:08:29.567Z,1.98
2023-05-11T15:10:57.354Z,2.60
2023-05-11T15:13:24.008Z,2.47
2023-05-11T15:15:51.013Z,2.40
2023-05-11T15:18:17.511Z,2.33
2023-05-11T15:20:44.062Z,2.40
2023-05-11T15:23:10.866Z,2.15
2023-05-11T15:25:37.189Z,3.25
2023-05-11T15:28:03.918Z,2.72
2023-05-11T15:30:32.540Z,2.35
2023-05-11T15:32:59.294Z,2.13
2023-05-11T15:35:25.408Z,2.13
2023-05-11T15:37:51.813Z,2.60
2023-05-11T15:40:17.971Z,2.17
2023-05-11T15:42:44.578Z,2.35
2023-05-11T15:45:11.130Z,2.15
2023-05-11T15:47:37.740Z,2.33
2023-05-11T15:50:04.305Z,2.70
2023-05-11T15:52:30.714Z,2.58
2023-05-11T15:54:57.114Z,2.05
2023-05-11T15:57:23.675Z,2.40
2023-05-11T15:59:50.195Z,1.92
2023-05-11T16:02:17.275Z,2.33
2023-05-11T16:04:43.767Z,2.63
2023-05-11T16:07:10.325Z,2.30
2023-05-11T16:09:36.787Z,2.42
2023-05-11T16:12:03.688Z,2.60
2023-05-11T16:14:30.380Z,2.50
2023-05-11T16:16:57.233Z,2.33
2023-05-11T16:19:23.917Z,2.20
2023-05-11T16:21:50.687Z,2.47
2023-05-11T16:24:17.026Z,2.20
2023-05-11T16:26:43.831Z,2.35
2023-05-11T16:29:10.400Z,2.58
2023-05-11T16:31:37.025Z,2.38
2023-05-11T16:34:03.209Z,2.08
2023-05-11T16:36:30.239Z,2.25
2023-05-11T16:38:56.532Z,2.03
2023-05-11T16:41:28.101Z,2.30
2023-05-11T16:43:55.234Z,1.85
2023-05-11T16:46:22.552Z,2.03
2023-05-11T16:48:48.855Z,2.10
2023-05-11T16:51:15.279Z,2.38
2023-05-11T16:53:41.527Z,2.13
2023-05-11T16:56:08.111Z,2.20
2023-05-11T16:58:34.955Z,2.33
2023-05-11T17:01:01.640Z,2.50
2023-05-11T17:03:27.896Z,2.65
2023-05-11T17:05:55.519Z,2.15
2023-05-11T17:08:22.046Z,2.38
2023-05-11T17:10:48.728Z,2.92
2023-05-11T17:13:14.995Z,2.20
2023-05-11T17:15:41.776Z,2.33
2023-05-11T17:18:08.271Z,2.20
2023-05-11T17:20:35.227Z,2.30
2023-05-11T17:23:01.572Z,2.55
2023-05-11T17:25:29.266Z,2.03
2023-05-11T17:27:55.630Z,2.20
2023-05-11T17:30:25.476Z,2.53
2023-05-11T17:32:56.674Z,2.75
2023-05-11T17:35:23.621Z,2.20
2023-05-11T17:37:50.001Z,2.43
2023-05-11T17:40:17.625Z,2.25
2023-05-11T17:42:44.050Z,2.60
2023-05-11T17:45:11.424Z,2.23
2023-05-11T17:47:38.160Z,2.67
2023-05-11T17:50:05.380Z,2.53
2023-05-11T17:52:32.030Z,2.80
2023-05-11T17:54:59.195Z,2.23
2023-05-11T17:57:25.788Z,2.80
2023-05-11T17:59:52.858Z,2.00
2023-05-11T18:02:19.582Z,2.20
2023-05-11T18:04:46.655Z,2.30
2023-05-11T18:07:13.140Z,2.60
2023-05-11T18:09:39.794Z,2.27
2023-05-11T18:12:07.280Z,2.50
2023-05-11T18:14:33.875Z,2.70
2023-05-11T18:17:00.153Z,2.63
2023-05-11T18:19:28.022Z,2.43
2023-05-11T18:21:54.649Z,2.60
2023-05-11T18:24:21.216Z,2.87
2023-05-11T18:26:48.346Z,2.70
2023-05-11T18:29:19.202Z,2.83
2023-05-11T18:31:45.952Z,2.60
2023-05-11T18:34:12.456Z,2.77
2023-05-11T18:36:38.819Z,2.63
2023-05-11T18:39:05.510Z,2.60
2023-05-11T18:41:31.960Z,2.63
2023-05-11T18:43:59.463Z,2.77
2023-05-11T18:46:25.604Z,2.60
2023-05-11T18:48:52.696Z,2.47
2023-05-11T18:51:22.614Z,2.70
2023-05-11T18:53:49.594Z,2.87
2023-05-11T18:56:34.639Z,2.90
2023-05-11T18:59:01.077Z,2.80
2023-05-11T19:01:46.122Z,2.90
2023-05-11T19:04:19.034Z,2.83
2023-05-11T19:06:45.539Z,2.80
2023-05-11T19:09:12.335Z,3.20
2023-05-11T19:11:38.597Z,2.97
2023-05-11T19:14:06.971Z,3.27
2023-05-11T19:16:35.150Z,2.90
2023-05-11T19:19:02.204Z,2.63
2023-05-11T19:21:28.485Z,2.87
2023-05-11T19:23:55.238Z,2.67
2023-05-11T19:26:21.970Z,2.87
2023-05-11T19:28:48.671Z,2.80
2023-05-11T19:31:14.973Z,3.13
2023-05-11T19:33:41.686Z,2.87
2023-05-11T19:36:07.929Z,2.67
2023-05-11T19:38:38.133Z,3.07
2023-05-11T19:41:04.536Z,2.80
2023-05-11T19:43:31.378Z,3.10
2023-05-11T19:45:58.239Z,2.60
2023-05-11T19:48:24.968Z,2.70
2023-05-11T19:50:51.570Z,3.20
2023-05-11T19:53:18.218Z,3.33
2023-05-11T19:55:46.016Z,2.93
2023-05-11T19:58:13.928Z,3.40
2023-05-11T20:00:40.647Z,3.30
2023-05-11T20:03:07.795Z,2.90
2023-05-11T20:05:34.487Z,2.90
2023-05-11T20:08:01.449Z,3.10
2023-05-11T20:10:27.932Z,3.07
2023-05-11T20:12:55.172Z,2.93
2023-05-11T20:15:21.784Z,3.53
2023-05-11T20:17:49.530Z,3.13
2023-05-11T20:20:16.188Z,2.83
2023-05-11T20:22:42.937Z,3.43
2023-05-11T20:25:17.535Z,2.83
2023-05-11T20:27:46.240Z,3.47
2023-05-11T20:30:13.135Z,3.47
2023-05-11T20:34:06.772Z,3.20
2023-05-11T20:35:27.916Z,3.20
2023-05-11T20:37:55.030Z,3.10
2023-05-11T20:40:21.578Z,3.37
2023-05-11T20:42:48.284Z,3.30
2023-05-11T20:45:14.876Z,3.20
2023-05-11T20:47:42.021Z,3.60
2023-05-11T20:50:09.365Z,3.50
2023-05-11T20:52:36.827Z,3.70
2023-05-11T20:55:03.312Z,3.43
2023-05-11T20:57:29.840Z,3.60
2023-05-11T21:02:25.827Z,3.23
2023-05-11T21:04:53.332Z,3.20
2023-05-11T21:07:22.340Z,3.53
2023-05-11T21:09:48.909Z,3.70
2023-05-11T21:12:15.891Z,3.63
2023-05-11T21:14:42.377Z,3.70
2023-05-11T21:17:08.823Z,3.53
2023-05-11T21:19:34.996Z,3.40
2023-05-11T21:22:01.490Z,3.67
2023-05-11T21:24:27.772Z,3.13
2023-05-11T21:26:54.181Z,3.27
2023-05-11T21:29:20.414Z,3.67
2023-05-11T21:31:46.850Z,3.40
2023-05-11T21:34:12.993Z,3.20
2023-05-11T21:36:40.599Z,3.67
2023-05-11T21:39:06.657Z,3.93
2023-05-11T21:41:33.150Z,3.33
2023-05-11T21:43:59.350Z,3.40
2023-05-11T21:46:26.036Z,3.70
2023-05-11T21:48:52.088Z,3.30
2023-05-11T21:51:19.633Z,3.63
2023-05-11T21:53:45.698Z,3.40
2023-05-11T21:56:12.211Z,3.67
2023-05-11T21:58:38.753Z,4.33
2023-05-11T22:01:05.371Z,3.33
2023-05-11T22:03:31.714Z,4.00
2023-05-11T22:05:58.275Z,3.40
2023-05-11T22:08:24.471Z,3.67
2023-05-11T22:10:50.666Z,3.57
2023-05-11T22:13:17.023Z,4.00
2023-05-11T22:15:43.185Z,4.00
2023-05-11T22:18:09.801Z,3.67
2023-05-11T22:20:36.118Z,3.90
2023-05-11T22:23:02.740Z,3.90
2023-05-11T22:25:28.932Z,4.00
2023-05-11T22:27:55.262Z,4.07
2023-05-11T22:30:21.719Z,4.10
2023-05-11T22:32:48.331Z,3.20
2023-05-11T22:35:14.491Z,3.40
2023-05-11T22:37:40.876Z,3.93
2023-05-11T22:40:08.039Z,3.73
2023-05-11T22:42:34.416Z,3.30
2023-05-11T22:45:00.856Z,3.80
2023-05-11T22:47:27.268Z,3.30
2023-05-11T22:49:53.570Z,3.80
2023-05-11T22:52:20.427Z,3.57
2023-05-11T22:54:46.950Z,3.83
2023-05-11T22:57:15.432Z,3.73
2023-05-11T22:59:41.906Z,3.60
2023-05-11T23:02:08.462Z,3.63
2023-05-11T23:04:35.028Z,3.90
2023-05-11T23:07:01.523Z,3.70
2023-05-11T23:09:27.712Z,3.50
2023-05-11T23:11:54.288Z,3.90
2023-05-11T23:14:20.381Z,3.43
2023-05-11T23:16:46.825Z,3.27
2023-05-11T23:19:13.264Z,3.27
2023-05-11T23:21:40.027Z,3.43
2023-05-11T23:24:06.375Z,3.60
2023-05-11T23:26:33.081Z,4.07
2023-05-11T23:28:59.178Z,3.70
2023-05-11T23:31:26.981Z,3.43
2023-05-11T23:33:53.348Z,3.80
2023-05-11T23:36:19.732Z,3.57
2023-05-11T23:38:45.823Z,3.90
2023-05-11T23:41:12.157Z,3.57
2023-05-11T23:43:38.340Z,3.87
2023-05-11T23:46:04.746Z,3.57
2023-05-11T23:48:30.840Z,3.57
2023-05-11T23:50:57.204Z,3.90
2023-05-11T23:53:23.291Z,3.90
2023-05-11T23:55:49.664Z,3.83
2023-05-11T23:58:21.927Z,3.93
